createdAt,value
2022-07-31T00:00:19.282Z,21.48
2022-07-31T00:02:46.826Z,21.42
2022-07-31T00:05:14.077Z,21.38
2022-07-31T00:07:41.027Z,21.34
2022-07-31T00:10:09.114Z,21.30
2022-07-31T00:12:36.079Z,21.26
2022-07-31T00:15:10.042Z,21.23
2022-07-31T00:17:42.747Z,21.19
2022-07-31T00:20:16.805Z,21.11
2022-07-31T00:22:46.359Z,21.11
2022-07-31T00:25:14.988Z,21.02
2022-07-31T00:27:42.738Z,21.05
2022-07-31T00:30:13.035Z,21.01
2022-07-31T00:32:41.679Z,20.98
2022-07-31T00:35:09.796Z,20.94
2022-07-31T00:37:40.175Z,20.90
2022-07-31T00:40:12.000Z,20.85
2022-07-31T00:42:39.335Z,20.82
2022-07-31T00:45:07.017Z,20.77
2022-07-31T00:47:35.230Z,20.73
2022-07-31T00:50:03.679Z,20.67
2022-07-31T00:52:30.701Z,20.61
2022-07-31T00:54:57.728Z,20.55
2022-07-31T00:57:24.704Z,20.52
2022-07-31T00:59:51.688Z,20.50
2022-07-31T01:02:18.725Z,20.46
2022-07-31T01:04:45.849Z,20.45
2022-07-31T01:07:13.099Z,20.42
2022-07-31T01:09:40.059Z,20.40
2022-07-31T01:12:24.919Z,20.35
2022-07-31T01:14:57.986Z,20.32
2022-07-31T01:17:26.692Z,20.29
2022-07-31T01:19:54.883Z,20.27
2022-07-31T01:22:59.224Z,20.23
2022-07-31T01:25:46.201Z,20.17
2022-07-31T01:29:04.699Z,20.10
2022-07-31T01:31:53.759Z,20.09
2022-07-31T01:34:44.797Z,20.04
2022-07-31T01:37:28.044Z,20.01
2022-07-31T01:40:21.926Z,19.98
2022-07-31T01:42:58.820Z,19.96
2022-07-31T01:45:27.537Z,19.95
2022-07-31T01:47:56.372Z,19.94
2022-07-31T01:50:43.956Z,19.91
2022-07-31T01:53:20.320Z,19.87
2022-07-31T01:55:56.730Z,19.83
2022-07-31T01:58:39.303Z,19.78
2022-07-31T02:01:27.353Z,19.77
2022-07-31T02:03:57.348Z,19.76
2022-07-31T02:06:28.044Z,19.74
2022-07-31T02:08:56.467Z,19.72
2022-07-31T02:11:24.496Z,19.65
2022-07-31T02:13:53.373Z,19.69
2022-07-31T02:16:22.142Z,19.67
2022-07-31T02:18:55.576Z,19.61
2022-07-31T02:21:27.029Z,19.64
2022-07-31T02:23:54.025Z,19.62
2022-07-31T02:26:22.067Z,19.59
2022-07-31T02:28:51.508Z,19.56
2022-07-31T02:31:21.831Z,19.50
2022-07-31T02:33:49.466Z,19.51
2022-07-31T02:36:19.880Z,19.47
2022-07-31T02:38:48.371Z,19.45
2022-07-31T02:41:17.517Z,19.42
2022-07-31T02:43:45.539Z,19.40
2022-07-31T02:46:23.226Z,19.36
2022-07-31T02:48:51.171Z,19.34
2022-07-31T02:51:20.212Z,19.32
2022-07-31T02:53:47.456Z,19.31
2022-07-31T02:56:15.884Z,19.28
2022-07-31T02:58:43.301Z,19.27
2022-07-31T03:01:19.010Z,19.24
2022-07-31T03:03:46.866Z,19.22
2022-07-31T03:06:14.809Z,19.21
2022-07-31T03:08:42.109Z,19.18
2022-07-31T03:11:09.554Z,19.17
2022-07-31T03:13:38.374Z,19.14
2022-07-31T03:16:09.764Z,19.12
2022-07-31T03:18:37.766Z,19.10
2022-07-31T03:21:05.994Z,19.07
2022-07-31T03:23:36.442Z,19.03
2022-07-31T03:26:16.052Z,18.96
2022-07-31T03:28:43.468Z,18.98
2022-07-31T03:31:10.439Z,18.97
2022-07-31T03:33:37.368Z,18.96
2022-07-31T03:36:04.602Z,18.94
2022-07-31T03:38:40.524Z,18.92
2022-07-31T03:41:11.964Z,18.92
2022-07-31T03:43:47.020Z,18.91
2022-07-31T03:46:17.879Z,18.90
2022-07-31T03:48:45.846Z,18.90
2022-07-31T03:51:13.311Z,18.90
2022-07-31T03:53:41.768Z,18.90
2022-07-31T03:56:17.177Z,18.91
2022-07-31T03:58:46.047Z,18.90
2022-07-31T04:01:20.609Z,18.89
2022-07-31T04:03:48.684Z,18.88
2022-07-31T04:06:27.912Z,18.83
2022-07-31T04:08:55.540Z,18.85
2022-07-31T04:11:22.970Z,18.86
2022-07-31T04:13:50.199Z,18.89
2022-07-31T04:16:17.172Z,19.02
2022-07-31T04:18:50.997Z,19.16
2022-07-31T04:21:18.404Z,19.28
2022-07-31T04:23:48.250Z,19.32
2022-07-31T04:26:35.733Z,19.38
2022-07-31T04:29:03.319Z,19.36
2022-07-31T04:31:31.464Z,19.39
2022-07-31T04:33:58.782Z,19.36
2022-07-31T04:36:29.751Z,19.42
2022-07-31T04:39:00.779Z,19.43
2022-07-31T04:41:28.871Z,19.45
2022-07-31T04:43:57.871Z,19.51
2022-07-31T04:46:27.349Z,19.58
2022-07-31T04:48:55.971Z,19.64
2022-07-31T04:51:25.956Z,19.70
2022-07-31T04:53:52.922Z,19.74
2022-07-31T04:56:33.401Z,19.74
2022-07-31T04:59:08.725Z,19.80
2022-07-31T05:01:40.624Z,19.79
2022-07-31T05:04:09.145Z,19.78
2022-07-31T05:06:51.228Z,19.84
2022-07-31T05:09:25.346Z,19.88
2022-07-31T05:11:55.494Z,19.92
2022-07-31T05:14:22.851Z,19.96
2022-07-31T05:16:49.975Z,19.96
2022-07-31T05:19:17.953Z,19.89
2022-07-31T05:22:14.152Z,19.81
2022-07-31T05:24:56.569Z,19.79
2022-07-31T05:27:24.080Z,19.70
2022-07-31T05:29:51.079Z,19.68
2022-07-31T05:32:18.227Z,19.71
2022-07-31T05:34:46.581Z,19.71
2022-07-31T05:37:13.672Z,19.76
2022-07-31T05:39:41.332Z,19.83
2022-07-31T05:42:40.435Z,19.93
2022-07-31T05:45:23.000Z,19.91
2022-07-31T05:47:50.036Z,20.10
2022-07-31T05:50:17.821Z,20.22
2022-07-31T05:52:45.949Z,20.33
2022-07-31T05:55:35.777Z,20.42
2022-07-31T05:58:17.010Z,20.57
2022-07-31T06:00:49.076Z,20.71
2022-07-31T06:03:16.558Z,20.82
2022-07-31T06:06:05.390Z,20.93
2022-07-31T06:08:33.376Z,21.09
2022-07-31T06:11:01.066Z,21.21
2022-07-31T06:13:30.267Z,21.32
2022-07-31T06:16:13.940Z,21.45
2022-07-31T06:18:41.762Z,21.58
2022-07-31T06:21:09.783Z,21.69
2022-07-31T06:23:37.126Z,21.77
2022-07-31T06:26:18.769Z,21.87
2022-07-31T06:28:49.278Z,21.96
2022-07-31T06:31:19.780Z,22.08
2022-07-31T06:33:48.575Z,22.17
2022-07-31T06:36:18.349Z,22.28
2022-07-31T06:38:58.509Z,22.38
2022-07-31T06:41:46.684Z,22.49
2022-07-31T06:44:34.415Z,22.59
2022-07-31T06:47:23.714Z,22.61
2022-07-31T06:50:13.599Z,22.64
2022-07-31T06:52:47.617Z,22.69
2022-07-31T06:55:14.719Z,22.73
2022-07-31T06:57:41.823Z,22.82
2022-07-31T07:00:20.616Z,22.97
2022-07-31T07:02:51.047Z,23.06
2022-07-31T07:05:18.175Z,23.22
2022-07-31T07:07:49.243Z,23.32
2022-07-31T07:10:16.299Z,23.43
2022-07-31T07:13:12.106Z,23.62
2022-07-31T07:15:40.966Z,23.79
2022-07-31T07:18:08.202Z,23.93
2022-07-31T07:20:40.905Z,24.12
2022-07-31T07:23:07.918Z,24.30
2022-07-31T07:25:45.620Z,24.53
2022-07-31T07:28:29.406Z,24.72
2022-07-31T07:30:59.389Z,24.90
2022-07-31T07:33:39.981Z,25.06
2022-07-31T07:36:22.713Z,25.19
2022-07-31T07:38:55.245Z,25.31
2022-07-31T07:41:24.879Z,25.43
2022-07-31T07:43:53.129Z,25.55
2022-07-31T07:46:23.053Z,25.62
2022-07-31T07:48:54.021Z,25.68
2022-07-31T07:51:58.329Z,25.74
2022-07-31T07:54:47.413Z,25.77
2022-07-31T07:57:46.384Z,25.92
2022-07-31T08:00:31.727Z,26.07
2022-07-31T08:03:49.290Z,26.22
2022-07-31T08:05:49.768Z,26.37
2022-07-31T08:08:16.739Z,26.44
2022-07-31T08:10:49.334Z,26.59
2022-07-31T08:13:35.022Z,26.66
2022-07-31T08:16:21.052Z,26.70
2022-07-31T08:18:51.672Z,26.79
2022-07-31T08:21:18.849Z,26.85
2022-07-31T08:23:47.354Z,26.94
2022-07-31T08:26:17.325Z,26.98
2022-07-31T08:28:50.350Z,27.04
2022-07-31T08:31:21.987Z,27.16
2022-07-31T08:34:05.227Z,27.24
2022-07-31T08:36:33.821Z,27.25
2022-07-31T08:39:00.760Z,27.30
2022-07-31T08:41:45.815Z,27.38
2022-07-31T08:44:12.962Z,27.41
2022-07-31T08:46:40.979Z,27.52
2022-07-31T08:49:09.829Z,27.56
2022-07-31T08:51:52.582Z,27.62
2022-07-31T08:54:46.332Z,27.66
2022-07-31T08:57:14.187Z,27.73
2022-07-31T08:59:42.312Z,27.84
2022-07-31T09:02:13.193Z,27.91
2022-07-31T09:04:56.617Z,27.98
2022-07-31T09:07:23.632Z,27.96
2022-07-31T09:09:51.176Z,28.04
2022-07-31T09:12:34.394Z,28.01
2022-07-31T09:15:19.574Z,28.01
2022-07-31T09:17:53.711Z,28.08
2022-07-31T09:20:29.772Z,28.10
2022-07-31T09:23:10.085Z,28.12
2022-07-31T09:25:55.856Z,28.22
2022-07-31T09:28:36.700Z,28.28
2022-07-31T09:31:07.454Z,28.31
2022-07-31T09:33:57.357Z,28.32
2022-07-31T09:36:56.318Z,28.30
2022-07-31T09:39:52.112Z,28.26
2022-07-31T09:42:45.678Z,28.19
2022-07-31T09:45:25.610Z,28.23
2022-07-31T09:48:08.158Z,28.30
2022-07-31T09:50:35.408Z,28.37
2022-07-31T09:53:02.401Z,28.48
2022-07-31T09:55:32.155Z,28.62
2022-07-31T09:58:00.872Z,28.72
2022-07-31T10:00:34.501Z,28.86
2022-07-31T10:03:02.788Z,28.98
2022-07-31T10:05:31.497Z,29.09
2022-07-31T10:08:02.194Z,29.18
2022-07-31T10:10:47.639Z,29.21
2022-07-31T10:13:40.595Z,29.22
2022-07-31T10:16:10.040Z,29.32
2022-07-31T10:19:01.235Z,29.38
2022-07-31T10:21:44.597Z,29.48
2022-07-31T10:24:28.398Z,29.61
2022-07-31T10:27:01.647Z,29.75
2022-07-31T10:29:33.094Z,29.81
2022-07-31T10:32:02.571Z,29.81
2022-07-31T10:34:33.144Z,29.85
2022-07-31T10:38:07.854Z,29.94
2022-07-31T10:41:16.089Z,30.03
2022-07-31T10:43:52.911Z,30.16
2022-07-31T10:46:33.349Z,30.26
2022-07-31T10:49:12.172Z,30.34
2022-07-31T10:52:02.428Z,30.44
2022-07-31T10:54:47.437Z,30.49
2022-07-31T10:57:34.673Z,30.56
2022-07-31T11:00:43.022Z,30.58
2022-07-31T11:03:23.004Z,30.64
2022-07-31T11:06:16.031Z,30.69
2022-07-31T11:08:55.385Z,30.76
2022-07-31T11:11:40.660Z,30.84
2022-07-31T11:14:38.905Z,30.88
2022-07-31T11:18:22.698Z,30.95
2022-07-31T11:20:30.283Z,31.05
2022-07-31T11:23:08.166Z,31.13
2022-07-31T11:25:36.997Z,31.22
2022-07-31T11:28:24.535Z,31.25
2022-07-31T11:30:54.781Z,31.29
2022-07-31T11:33:43.622Z,31.34
2022-07-31T11:36:14.197Z,31.42
2022-07-31T11:38:44.751Z,31.52
2022-07-31T11:41:14.954Z,31.55
2022-07-31T11:43:47.331Z,31.73
2022-07-31T11:46:25.068Z,31.79
2022-07-31T11:48:53.582Z,31.89
2022-07-31T11:51:21.750Z,32.00
2022-07-31T11:53:56.981Z,32.10
2022-07-31T11:56:26.989Z,32.18
2022-07-31T11:58:57.090Z,32.26
2022-07-31T12:01:29.299Z,32.29
2022-07-31T12:04:07.506Z,32.34
2022-07-31T12:06:36.698Z,32.40
2022-07-31T12:09:04.363Z,32.45
2022-07-31T12:11:31.280Z,32.51
2022-07-31T12:13:59.409Z,32.56
2022-07-31T12:16:26.704Z,32.59
2022-07-31T12:19:01.142Z,32.61
2022-07-31T12:21:46.233Z,32.64
2022-07-31T12:24:14.465Z,32.74
2022-07-31T12:26:50.117Z,32.82
2022-07-31T12:29:17.240Z,32.88
2022-07-31T12:31:51.204Z,32.80
2022-07-31T12:34:34.976Z,32.66
2022-07-31T12:37:12.323Z,32.61
2022-07-31T12:40:00.813Z,32.55
2022-07-31T12:42:40.624Z,32.51
2022-07-31T12:45:18.321Z,32.55
2022-07-31T12:47:51.675Z,32.62
2022-07-31T12:50:20.325Z,32.71
2022-07-31T12:52:47.382Z,32.80
2022-07-31T12:55:17.261Z,32.86
2022-07-31T12:57:50.391Z,32.98
2022-07-31T13:00:24.441Z,33.05
2022-07-31T13:02:53.435Z,33.13
2022-07-31T13:05:21.354Z,33.13
2022-07-31T13:07:49.024Z,33.14
2022-07-31T13:10:23.758Z,33.18
2022-07-31T13:12:52.740Z,33.22
2022-07-31T13:15:29.657Z,33.24
2022-07-31T13:17:58.927Z,33.29
2022-07-31T13:20:25.996Z,33.32
2022-07-31T13:22:52.931Z,33.33
2022-07-31T13:25:20.225Z,33.38
2022-07-31T13:27:47.821Z,33.39
2022-07-31T13:30:14.763Z,33.40
2022-07-31T13:32:41.787Z,33.46
2022-07-31T13:35:26.627Z,33.53
2022-07-31T13:37:56.341Z,33.58
2022-07-31T13:40:42.053Z,33.61
2022-07-31T13:43:09.057Z,33.54
2022-07-31T13:45:36.414Z,33.52
2022-07-31T13:48:08.634Z,33.56
2022-07-31T13:50:37.579Z,33.61
2022-07-31T13:53:04.857Z,33.67
2022-07-31T13:55:32.103Z,33.76
2022-07-31T13:57:59.743Z,33.84
2022-07-31T14:00:30.822Z,33.89
2022-07-31T14:02:58.134Z,33.93
2022-07-31T14:05:27.456Z,33.93
2022-07-31T14:07:55.825Z,33.95
2022-07-31T14:10:23.595Z,33.94
2022-07-31T14:12:50.993Z,33.94
2022-07-31T14:15:18.425Z,33.91
2022-07-31T14:17:45.578Z,33.82
2022-07-31T14:20:13.772Z,33.72
2022-07-31T14:22:42.172Z,33.73
2022-07-31T14:25:10.246Z,33.74
2022-07-31T14:27:38.621Z,33.76
2022-07-31T14:30:10.013Z,33.75
2022-07-31T14:32:36.983Z,33.74
2022-07-31T14:35:08.321Z,33.73
2022-07-31T14:37:35.957Z,33.69
2022-07-31T14:40:04.602Z,33.69
2022-07-31T14:42:32.407Z,33.70
2022-07-31T14:44:59.891Z,33.71
2022-07-31T14:47:26.837Z,33.74
2022-07-31T14:50:07.986Z,33.78
2022-07-31T14:52:37.058Z,33.82
2022-07-31T14:55:04.505Z,33.86
2022-07-31T14:57:31.592Z,33.88
2022-07-31T14:59:58.863Z,33.84
2022-07-31T15:02:26.243Z,33.78
2022-07-31T15:04:54.158Z,33.75
2022-07-31T15:07:41.296Z,33.63
2022-07-31T15:10:10.641Z,33.39
2022-07-31T15:12:37.791Z,33.15
2022-07-31T15:15:05.960Z,33.11
2022-07-31T15:17:32.879Z,33.14
2022-07-31T15:19:59.893Z,33.19
2022-07-31T15:22:27.027Z,33.20
2022-07-31T15:24:54.013Z,33.23
2022-07-31T15:27:21.987Z,33.15
2022-07-31T15:30:03.612Z,33.13
2022-07-31T15:32:35.081Z,33.12
2022-07-31T15:35:02.240Z,33.09
2022-07-31T15:37:30.160Z,32.98
2022-07-31T15:40:02.921Z,32.85
2022-07-31T15:42:40.493Z,32.74
2022-07-31T15:45:17.008Z,32.73
2022-07-31T15:47:45.222Z,32.77
2022-07-31T15:50:15.657Z,32.78
2022-07-31T15:52:43.192Z,32.72
2022-07-31T15:55:10.491Z,32.72
2022-07-31T15:57:38.171Z,32.75
2022-07-31T16:00:09.435Z,32.78
2022-07-31T16:02:39.584Z,32.79
2022-07-31T16:05:11.980Z,32.82
2022-07-31T16:08:30.981Z,32.75
2022-07-31T16:10:36.500Z,32.83
2022-07-31T16:13:03.624Z,32.85
2022-07-31T16:15:31.877Z,32.88
2022-07-31T16:17:58.800Z,32.88
2022-07-31T16:20:27.106Z,32.82
2022-07-31T16:22:58.659Z,32.85
2022-07-31T16:25:27.070Z,32.84
2022-07-31T16:27:54.600Z,32.83
2022-07-31T16:30:22.203Z,32.78
2022-07-31T16:32:50.055Z,32.76
2022-07-31T16:35:16.963Z,32.71
2022-07-31T16:37:51.138Z,32.60
2022-07-31T16:40:29.830Z,32.43
2022-07-31T16:43:49.428Z,32.30
2022-07-31T16:45:51.891Z,32.22
2022-07-31T16:48:19.142Z,32.15
2022-07-31T16:50:48.354Z,32.11
2022-07-31T16:54:10.553Z,32.05
2022-07-31T16:56:10.453Z,31.94
2022-07-31T16:58:37.387Z,31.83
2022-07-31T17:01:04.525Z,31.77
2022-07-31T17:04:00.506Z,31.71
2022-07-31T17:06:18.558Z,31.60
2022-07-31T17:09:15.749Z,31.49
2022-07-31T17:11:47.026Z,31.39
2022-07-31T17:14:14.019Z,31.35
2022-07-31T17:16:46.470Z,31.32
2022-07-31T17:19:15.126Z,31.31
2022-07-31T17:21:44.330Z,31.26
2022-07-31T17:24:15.887Z,31.21
2022-07-31T17:26:43.968Z,31.09
2022-07-31T17:29:14.301Z,31.08
2022-07-31T17:31:41.221Z,31.05
2022-07-31T17:34:09.539Z,30.93
2022-07-31T17:36:36.884Z,30.91
2022-07-31T17:39:04.841Z,30.87
2022-07-31T17:41:32.067Z,30.80
2022-07-31T17:43:58.959Z,30.70
2022-07-31T17:46:34.767Z,30.49
2022-07-31T17:49:05.861Z,30.44
2022-07-31T17:51:33.270Z,30.41
2022-07-31T17:54:00.784Z,30.38
2022-07-31T17:56:27.780Z,30.32
2022-07-31T17:58:55.804Z,30.30
2022-07-31T18:01:28.482Z,30.24
2022-07-31T18:03:55.987Z,30.13
2022-07-31T18:06:23.039Z,30.07
2022-07-31T18:08:50.006Z,30.02
2022-07-31T18:11:17.290Z,29.95
2022-07-31T18:13:48.237Z,29.91
2022-07-31T18:16:19.143Z,29.86
2022-07-31T18:18:46.398Z,29.85
2022-07-31T18:21:14.132Z,29.80
2022-07-31T18:23:47.341Z,29.76
2022-07-31T18:26:14.700Z,29.70
2022-07-31T18:28:42.195Z,29.62
2022-07-31T18:31:25.467Z,29.53
2022-07-31T18:33:56.066Z,29.33
2022-07-31T18:36:23.214Z,29.21
2022-07-31T18:38:52.008Z,29.08
2022-07-31T18:41:19.019Z,29.04
2022-07-31T18:43:45.919Z,28.99
2022-07-31T18:46:12.829Z,28.94
2022-07-31T18:48:39.731Z,28.84
2022-07-31T18:51:06.706Z,28.76
2022-07-31T18:53:33.762Z,28.65
2022-07-31T18:56:00.858Z,28.56
2022-07-31T18:58:28.795Z,28.42
2022-07-31T19:00:55.925Z,28.32
2022-07-31T19:03:25.649Z,28.29
2022-07-31T19:05:53.491Z,28.28
2022-07-31T19:08:20.817Z,28.20
2022-07-31T19:10:53.626Z,28.14
2022-07-31T19:13:22.516Z,28.13
2022-07-31T19:15:52.855Z,28.07
2022-07-31T19:18:24.477Z,27.97
2022-07-31T19:21:22.761Z,27.82
2022-07-31T19:23:44.214Z,27.80
2022-07-31T19:26:11.517Z,27.79
2022-07-31T19:28:39.831Z,27.74
2022-07-31T19:31:07.345Z,27.72
2022-07-31T19:33:35.568Z,27.70
2022-07-31T19:36:03.282Z,27.70
2022-07-31T19:38:38.073Z,27.67
2022-07-31T19:41:05.142Z,27.67
2022-07-31T19:43:33.103Z,27.63
2022-07-31T19:46:11.204Z,27.57
2022-07-31T19:48:44.619Z,27.59
2022-07-31T19:51:14.176Z,27.64
2022-07-31T19:53:41.852Z,27.72
2022-07-31T19:56:10.193Z,27.68
2022-07-31T19:58:38.307Z,27.60
2022-07-31T20:01:06.097Z,27.54
2022-07-31T20:03:33.303Z,27.54
2022-07-31T20:06:01.059Z,27.55
2022-07-31T20:08:32.713Z,27.56
2022-07-31T20:11:03.903Z,27.54
2022-07-31T20:13:33.303Z,27.50
2022-07-31T20:16:01.219Z,27.47
2022-07-31T20:18:29.040Z,27.44
2022-07-31T20:21:04.148Z,27.34
2022-07-31T20:23:33.924Z,27.26
2022-07-31T20:26:00.957Z,27.22
2022-07-31T20:28:28.047Z,27.21
2022-07-31T20:30:54.954Z,27.13
2022-07-31T20:33:21.883Z,27.14
2022-07-31T20:35:50.297Z,27.09
2022-07-31T20:38:22.988Z,27.01
2022-07-31T20:40:53.588Z,26.94
2022-07-31T20:43:24.030Z,26.92
2022-07-31T20:45:51.765Z,26.93
2022-07-31T20:48:18.846Z,26.94
2022-07-31T20:50:48.165Z,26.91
2022-07-31T20:53:19.273Z,26.92
2022-07-31T20:55:49.168Z,26.82
2022-07-31T20:58:18.393Z,26.68
2022-07-31T21:00:47.212Z,26.58
2022-07-31T21:03:14.867Z,26.49
2022-07-31T21:05:41.791Z,26.37
2022-07-31T21:08:08.793Z,26.34
2022-07-31T21:10:36.032Z,26.30
2022-07-31T21:13:03.119Z,26.18
2022-07-31T21:15:42.444Z,25.98
2022-07-31T21:18:13.478Z,25.82
2022-07-31T21:20:50.195Z,25.74
2022-07-31T21:23:24.534Z,25.71
2022-07-31T21:25:56.700Z,25.72
2022-07-31T21:28:26.366Z,25.74
2022-07-31T21:30:55.785Z,25.67
2022-07-31T21:33:25.973Z,25.54
2022-07-31T21:35:54.646Z,25.36
2022-07-31T21:38:21.697Z,25.18
2022-07-31T21:40:49.164Z,25.03
2022-07-31T21:43:22.780Z,24.92
2022-07-31T21:45:56.003Z,24.92
2022-07-31T21:48:28.805Z,25.00
2022-07-31T21:50:55.920Z,24.97
2022-07-31T21:53:24.044Z,24.84
2022-07-31T21:55:51.832Z,24.87
2022-07-31T21:58:19.600Z,24.87
2022-07-31T22:00:46.825Z,24.91
2022-07-31T22:03:13.788Z,24.95
2022-07-31T22:05:59.713Z,24.92
2022-07-31T22:08:26.644Z,24.75
2022-07-31T22:10:53.689Z,24.60
2022-07-31T22:13:20.924Z,24.48
2022-07-31T22:15:55.560Z,24.44
2022-07-31T22:18:28.923Z,24.45
2022-07-31T22:20:56.579Z,24.49
2022-07-31T22:23:23.910Z,24.51
2022-07-31T22:25:51.091Z,24.42
2022-07-31T22:28:20.497Z,24.30
2022-07-31T22:30:48.349Z,24.26
2022-07-31T22:33:15.448Z,24.23
2022-07-31T22:35:43.540Z,24.25
2022-07-31T22:38:13.300Z,24.36
2022-07-31T22:40:40.454Z,24.42
2022-07-31T22:44:09.925Z,24.42
2022-07-31T22:46:00.951Z,24.42
2022-07-31T22:48:28.515Z,24.47
2022-07-31T22:50:56.347Z,24.51
2022-07-31T22:53:24.313Z,24.50
2022-07-31T22:55:55.369Z,24.45
2022-07-31T22:58:22.811Z,24.48
2022-07-31T23:00:50.498Z,24.51
2022-07-31T23:03:17.456Z,24.56
2022-07-31T23:06:28.214Z,24.60
2022-07-31T23:08:31.247Z,24.62
2022-07-31T23:10:58.136Z,24.64
2022-07-31T23:13:25.085Z,24.51
2022-07-31T23:15:51.992Z,24.34
2022-07-31T23:18:18.900Z,24.19
2022-07-31T23:20:45.817Z,24.23
2022-07-31T23:23:12.733Z,24.17
2022-07-31T23:25:39.651Z,24.04
2022-07-31T23:28:06.563Z,23.90
2022-07-31T23:30:33.463Z,23.80
2022-07-31T23:33:00.390Z,23.76
2022-07-31T23:35:27.309Z,23.71
2022-07-31T23:37:54.250Z,23.70
2022-07-31T23:40:21.180Z,23.75
2022-07-31T23:42:48.859Z,23.85
2022-07-31T23:45:16.035Z,23.93
2022-07-31T23:47:45.657Z,23.94
2022-07-31T23:50:14.474Z,23.92
2022-07-31T23:52:42.762Z,23.91
2022-07-31T23:55:10.015Z,23.96
2022-07-31T23:57:36.971Z,23.93
